sensor_id;sensor_type;location;lat;lon;timestamp;P1;durP1;ratioP1;P2;durP2;ratioP2
51467;SDS011;37545;45.302;-122.946;2023-07-13T00:02:11;3.17;;;1.30;;
51467;SDS011;37545;45.302;-122.946;2023-07-13T00:04:40;5.32;;;1.20;;
51467;SDS011;37545;45.302;-122.946;2023-07-13T00:07:10;2.90;;;1.20;;
51467;SDS011;37545;45.302;-122.946;2023-07-13T00:09:39;1.50;;;1.20;;
51467;SDS011;37545;45.302;-122.946;2023-07-13T00:12:21;1.55;;;1.10;;
51467;SDS011;37545;45.302;-122.946;2023-07-13T00:14:51;2.30;;;1.45;;
51467;SDS011;37545;45.302;-122.946;2023-07-13T00:17:20;2.60;;;1.33;;
51467;SDS011;37545;45.302;-122.946;2023-07-13T00:19:48;1.42;;;1.08;;
51467;SDS011;37545;45.302;-122.946;2023-07-13T00:22:19;1.98;;;1.20;;
51467;SDS011;37545;45.302;-122.946;2023-07-13T00:24:47;1.80;;;1.13;;
51467;SDS011;37545;45.302;-122.946;2023-07-13T00:27:17;2.08;;;1.00;;
51467;SDS011;37545;45.302;-122.946;2023-07-13T00:29:46;3.42;;;1.33;;
51467;SDS011;37545;45.302;-122.946;2023-07-13T00:32:14;5.32;;;1.58;;
51467;SDS011;37545;45.302;-122.946;2023-07-13T00:34:43;3.88;;;1.70;;
51467;SDS011;37545;45.302;-122.946;2023-07-13T00:37:12;5.38;;;1.55;;
51467;SDS011;37545;45.302;-122.946;2023-07-13T00:39:42;2.60;;;1.40;;
51467;SDS011;37545;45.302;-122.946;2023-07-13T00:42:12;4.35;;;1.67;;
51467;SDS011;37545;45.302;-122.946;2023-07-13T00:44:41;4.35;;;1.23;;
51467;SDS011;37545;45.302;-122.946;2023-07-13T00:47:24;1.83;;;1.30;;
51467;SDS011;37545;45.302;-122.946;2023-07-13T00:49:53;3.25;;;1.40;;
51467;SDS011;37545;45.302;-122.946;2023-07-13T00:52:21;2.83;;;1.35;;
51467;SDS011;37545;45.302;-122.946;2023-07-13T00:54:52;6.93;;;1.63;;
51467;SDS011;37545;45.302;-122.946;2023-07-13T00:57:22;2.67;;;1.30;;
51467;SDS011;37545;45.302;-122.946;2023-07-13T00:59:52;2.95;;;1.30;;
51467;SDS011;37545;45.302;-122.946;2023-07-13T01:02:23;4.60;;;1.40;;
51467;SDS011;37545;45.302;-122.946;2023-07-13T01:04:53;4.75;;;1.40;;
51467;SDS011;37545;45.302;-122.946;2023-07-13T01:07:22;4.05;;;1.50;;
51467;SDS011;37545;45.302;-122.946;2023-07-13T01:09:58;4.43;;;1.35;;
51467;SDS011;37545;45.302;-122.946;2023-07-13T01:12:34;3.25;;;1.50;;
51467;SDS011;37545;45.302;-122.946;2023-07-13T01:15:03;5.57;;;1.77;;
51467;SDS011;37545;45.302;-122.946;2023-07-13T01:17:35;4.13;;;1.33;;
51467;SDS011;37545;45.302;-122.946;2023-07-13T01:20:04;4.15;;;1.40;;
51467;SDS011;37545;45.302;-122.946;2023-07-13T01:22:36;2.47;;;1.35;;
51467;SDS011;37545;45.302;-122.946;2023-07-13T01:25:05;2.38;;;1.70;;
51467;SDS011;37545;45.302;-122.946;2023-07-13T01:27:34;2.22;;;1.50;;
51467;SDS011;37545;45.302;-122.946;2023-07-13T01:30:03;4.78;;;1.63;;
51467;SDS011;37545;45.302;-122.946;2023-07-13T01:32:32;3.88;;;1.30;;
51467;SDS011;37545;45.302;-122.946;2023-07-13T01:35:02;2.05;;;1.38;;
51467;SDS011;37545;45.302;-122.946;2023-07-13T01:37:31;4.00;;;1.25;;
51467;SDS011;37545;45.302;-122.946;2023-07-13T01:40:03;4.15;;;1.35;;
51467;SDS011;37545;45.302;-122.946;2023-07-13T01:42:34;3.20;;;1.60;;
51467;SDS011;37545;45.302;-122.946;2023-07-13T01:45:03;2.58;;;1.27;;
51467;SDS011;37545;45.302;-122.946;2023-07-13T01:47:32;3.50;;;1.40;;
51467;SDS011;37545;45.302;-122.946;2023-07-13T01:50:01;2.60;;;1.30;;
51467;SDS011;37545;45.302;-122.946;2023-07-13T01:52:33;3.20;;;1.50;;
51467;SDS011;37545;45.302;-122.946;2023-07-13T01:55:04;1.45;;;1.23;;
51467;SDS011;37545;45.302;-122.946;2023-07-13T01:57:33;3.47;;;1.30;;
51467;SDS011;37545;45.302;-122.946;2023-07-13T02:00:02;3.80;;;1.33;;
51467;SDS011;37545;45.302;-122.946;2023-07-13T02:02:32;2.10;;;1.25;;
51467;SDS011;37545;45.302;-122.946;2023-07-13T02:05:00;1.90;;;1.20;;
51467;SDS011;37545;45.302;-122.946;2023-07-13T02:07:29;2.22;;;1.27;;
51467;SDS011;37545;45.302;-122.946;2023-07-13T02:09:58;3.15;;;1.40;;
51467;SDS011;37545;45.302;-122.946;2023-07-13T02:12:28;3.95;;;1.40;;
51467;SDS011;37545;45.302;-122.946;2023-07-13T02:14:56;5.43;;;1.30;;
51467;SDS011;37545;45.302;-122.946;2023-07-13T02:17:25;1.80;;;1.58;;
51467;SDS011;37545;45.302;-122.946;2023-07-13T02:19:54;2.55;;;1.27;;
51467;SDS011;37545;45.302;-122.946;2023-07-13T02:22:23;4.93;;;1.52;;
51467;SDS011;37545;45.302;-122.946;2023-07-13T02:24:51;2.33;;;1.48;;
51467;SDS011;37545;45.302;-122.946;2023-07-13T02:27:22;3.20;;;1.10;;
51467;SDS011;37545;45.302;-122.946;2023-07-13T02:29:52;3.47;;;1.20;;
51467;SDS011;37545;45.302;-122.946;2023-07-13T02:32:21;2.50;;;1.20;;
51467;SDS011;37545;45.302;-122.946;2023-07-13T02:34:53;5.68;;;1.10;;
51467;SDS011;37545;45.302;-122.946;2023-07-13T02:37:21;5.07;;;1.35;;
51467;SDS011;37545;45.302;-122.946;2023-07-13T02:39:50;4.85;;;1.80;;
51467;SDS011;37545;45.302;-122.946;2023-07-13T02:42:19;1.88;;;1.30;;
51467;SDS011;37545;45.302;-122.946;2023-07-13T02:44:48;2.85;;;1.30;;
51467;SDS011;37545;45.302;-122.946;2023-07-13T02:47:18;3.75;;;1.60;;
51467;SDS011;37545;45.302;-122.946;2023-07-13T02:49:47;4.72;;;1.85;;
51467;SDS011;37545;45.302;-122.946;2023-07-13T02:52:16;2.53;;;1.50;;
51467;SDS011;37545;45.302;-122.946;2023-07-13T02:54:44;4.75;;;1.50;;
51467;SDS011;37545;45.302;-122.946;2023-07-13T02:57:13;6.00;;;1.20;;
51467;SDS011;37545;45.302;-122.946;2023-07-13T02:59:42;3.22;;;1.30;;
51467;SDS011;37545;45.302;-122.946;2023-07-13T03:02:10;2.40;;;1.30;;
51467;SDS011;37545;45.302;-122.946;2023-07-13T03:04:41;3.60;;;1.45;;
51467;SDS011;37545;45.302;-122.946;2023-07-13T03:07:09;1.73;;;1.33;;
51467;SDS011;37545;45.302;-122.946;2023-07-13T03:09:39;2.75;;;1.13;;
51467;SDS011;37545;45.302;-122.946;2023-07-13T03:12:08;1.55;;;1.23;;
51467;SDS011;37545;45.302;-122.946;2023-07-13T03:14:37;3.33;;;1.30;;
51467;SDS011;37545;45.302;-122.946;2023-07-13T03:17:05;2.25;;;1.40;;
51467;SDS011;37545;45.302;-122.946;2023-07-13T03:19:34;2.05;;;1.15;;
51467;SDS011;37545;45.302;-122.946;2023-07-13T03:22:05;2.67;;;1.30;;
51467;SDS011;37545;45.302;-122.946;2023-07-13T03:24:33;3.45;;;1.20;;
51467;SDS011;37545;45.302;-122.946;2023-07-13T03:27:05;4.07;;;1.38;;
51467;SDS011;37545;45.302;-122.946;2023-07-13T03:29:34;3.60;;;1.23;;
51467;SDS011;37545;45.302;-122.946;2023-07-13T03:32:03;2.05;;;0.98;;
51467;SDS011;37545;45.302;-122.946;2023-07-13T03:34:34;2.88;;;1.17;;
51467;SDS011;37545;45.302;-122.946;2023-07-13T03:37:07;1.77;;;1.13;;
51467;SDS011;37545;45.302;-122.946;2023-07-13T03:39:36;1.73;;;1.15;;
51467;SDS011;37545;45.302;-122.946;2023-07-13T03:42:05;3.30;;;1.10;;
51467;SDS011;37545;45.302;-122.946;2023-07-13T03:44:34;1.27;;;1.02;;
51467;SDS011;37545;45.302;-122.946;2023-07-13T03:47:03;3.55;;;1.00;;
51467;SDS011;37545;45.302;-122.946;2023-07-13T03:49:34;3.40;;;1.15;;
51467;SDS011;37545;45.302;-122.946;2023-07-13T03:52:05;1.38;;;1.00;;
51467;SDS011;37545;45.302;-122.946;2023-07-13T03:54:36;4.20;;;0.98;;
51467;SDS011;37545;45.302;-122.946;2023-07-13T03:57:07;2.47;;;1.13;;
51467;SDS011;37545;45.302;-122.946;2023-07-13T03:59:36;1.88;;;0.90;;
51467;SDS011;37545;45.302;-122.946;2023-07-13T04:02:05;3.08;;;1.25;;
51467;SDS011;37545;45.302;-122.946;2023-07-13T04:04:34;2.35;;;0.98;;
51467;SDS011;37545;45.302;-122.946;2023-07-13T04:07:07;4.30;;;1.08;;
51467;SDS011;37545;45.302;-122.946;2023-07-13T04:09:36;2.50;;;1.17;;
51467;SDS011;37545;45.302;-122.946;2023-07-13T04:12:05;4.43;;;1.10;;
51467;SDS011;37545;45.302;-122.946;2023-07-13T04:14:34;2.55;;;1.45;;
51467;SDS011;37545;45.302;-122.946;2023-07-13T04:17:04;1.98;;;0.98;;
51467;SDS011;37545;45.302;-122.946;2023-07-13T04:19:33;1.77;;;0.80;;
51467;SDS011;37545;45.302;-122.946;2023-07-13T04:22:01;1.23;;;1.00;;
51467;SDS011;37545;45.302;-122.946;2023-07-13T04:24:32;3.47;;;1.00;;
51467;SDS011;37545;45.302;-122.946;2023-07-13T04:27:01;2.90;;;1.15;;
51467;SDS011;37545;45.302;-122.946;2023-07-13T04:29:29;1.75;;;0.98;;
51467;SDS011;37545;45.302;-122.946;2023-07-13T04:31:58;2.25;;;1.13;;
51467;SDS011;37545;45.302;-122.946;2023-07-13T04:34:27;2.17;;;0.80;;
51467;SDS011;37545;45.302;-122.946;2023-07-13T04:36:55;2.88;;;0.98;;
51467;SDS011;37545;45.302;-122.946;2023-07-13T04:39:24;2.40;;;1.10;;
51467;SDS011;37545;45.302;-122.946;2023-07-13T04:41:54;2.70;;;1.00;;
51467;SDS011;37545;45.302;-122.946;2023-07-13T04:44:23;1.17;;;0.88;;
51467;SDS011;37545;45.302;-122.946;2023-07-13T04:46:51;3.15;;;0.88;;
51467;SDS011;37545;45.302;-122.946;2023-07-13T04:49:20;3.78;;;1.10;;
51467;SDS011;37545;45.302;-122.946;2023-07-13T04:51:49;2.42;;;0.85;;
51467;SDS011;37545;45.302;-122.946;2023-07-13T04:54:17;1.73;;;1.10;;
51467;SDS011;37545;45.302;-122.946;2023-07-13T04:56:46;2.38;;;1.00;;
51467;SDS011;37545;45.302;-122.946;2023-07-13T04:59:17;2.42;;;0.90;;
51467;SDS011;37545;45.302;-122.946;2023-07-13T05:01:45;1.10;;;0.98;;
51467;SDS011;37545;45.302;-122.946;2023-07-13T05:04:14;1.30;;;0.98;;
51467;SDS011;37545;45.302;-122.946;2023-07-13T05:06:42;1.25;;;0.90;;
51467;SDS011;37545;45.302;-122.946;2023-07-13T05:09:11;3.15;;;0.90;;
51467;SDS011;37545;45.302;-122.946;2023-07-13T05:11:40;1.30;;;1.00;;
51467;SDS011;37545;45.302;-122.946;2023-07-13T05:14:08;2.17;;;0.93;;
51467;SDS011;37545;45.302;-122.946;2023-07-13T05:16:38;2.83;;;1.15;;
51467;SDS011;37545;45.302;-122.946;2023-07-13T05:19:07;2.10;;;0.95;;
51467;SDS011;37545;45.302;-122.946;2023-07-13T05:21:36;1.10;;;0.80;;
51467;SDS011;37545;45.302;-122.946;2023-07-13T05:24:05;2.25;;;0.90;;
51467;SDS011;37545;45.302;-122.946;2023-07-13T05:26:33;1.90;;;0.93;;
51467;SDS011;37545;45.302;-122.946;2023-07-13T05:29:02;1.95;;;0.90;;
51467;SDS011;37545;45.302;-122.946;2023-07-13T05:31:31;1.48;;;0.85;;
51467;SDS011;37545;45.302;-122.946;2023-07-13T05:34:02;1.95;;;0.93;;
51467;SDS011;37545;45.302;-122.946;2023-07-13T05:36:31;1.88;;;1.00;;
51467;SDS011;37545;45.302;-122.946;2023-07-13T05:38:59;2.00;;;1.00;;
51467;SDS011;37545;45.302;-122.946;2023-07-13T05:41:28;1.55;;;0.82;;
51467;SDS011;37545;45.302;-122.946;2023-07-13T05:43:58;1.00;;;0.80;;
51467;SDS011;37545;45.302;-122.946;2023-07-13T05:46:27;1.45;;;0.80;;
51467;SDS011;37545;45.302;-122.946;2023-07-13T05:48:56;5.05;;;1.00;;
51467;SDS011;37545;45.302;-122.946;2023-07-13T05:51:33;2.95;;;1.10;;
51467;SDS011;37545;45.302;-122.946;2023-07-13T05:54:02;1.50;;;1.00;;
51467;SDS011;37545;45.302;-122.946;2023-07-13T05:56:37;1.55;;;0.90;;
51467;SDS011;37545;45.302;-122.946;2023-07-13T05:59:05;1.63;;;0.82;;
51467;SDS011;37545;45.302;-122.946;2023-07-13T06:01:34;2.65;;;0.90;;
51467;SDS011;37545;45.302;-122.946;2023-07-13T06:04:04;2.33;;;0.82;;
51467;SDS011;37545;45.302;-122.946;2023-07-13T06:06:34;2.17;;;0.80;;
51467;SDS011;37545;45.302;-122.946;2023-07-13T06:09:03;1.58;;;0.70;;
51467;SDS011;37545;45.302;-122.946;2023-07-13T06:11:31;1.20;;;0.90;;
51467;SDS011;37545;45.302;-122.946;2023-07-13T06:14:00;2.50;;;1.00;;
51467;SDS011;37545;45.302;-122.946;2023-07-13T06:16:29;2.65;;;0.80;;
51467;SDS011;37545;45.302;-122.946;2023-07-13T06:18:58;1.20;;;1.00;;
51467;SDS011;37545;45.302;-122.946;2023-07-13T06:21:26;1.30;;;1.15;;
51467;SDS011;37545;45.302;-122.946;2023-07-13T06:23:56;0.98;;;0.63;;
51467;SDS011;37545;45.302;-122.946;2023-07-13T06:26:25;1.38;;;0.90;;
51467;SDS011;37545;45.302;-122.946;2023-07-13T06:28:54;1.52;;;0.77;;
51467;SDS011;37545;45.302;-122.946;2023-07-13T06:31:23;2.00;;;0.80;;
51467;SDS011;37545;45.302;-122.946;2023-07-13T06:33:51;1.17;;;0.80;;
51467;SDS011;37545;45.302;-122.946;2023-07-13T06:36:20;0.82;;;0.70;;
51467;SDS011;37545;45.302;-122.946;2023-07-13T06:38:48;4.35;;;1.00;;
51467;SDS011;37545;45.302;-122.946;2023-07-13T06:41:20;1.70;;;0.80;;
51467;SDS011;37545;45.302;-122.946;2023-07-13T06:43:51;1.15;;;0.90;;
51467;SDS011;37545;45.302;-122.946;2023-07-13T06:46:20;2.38;;;1.08;;
51467;SDS011;37545;45.302;-122.946;2023-07-13T06:48:49;1.40;;;0.82;;
51467;SDS011;37545;45.302;-122.946;2023-07-13T06:51:18;1.52;;;0.80;;
51467;SDS011;37545;45.302;-122.946;2023-07-13T06:53:46;1.63;;;0.82;;
51467;SDS011;37545;45.302;-122.946;2023-07-13T06:56:15;5.75;;;1.05;;
51467;SDS011;37545;45.302;-122.946;2023-07-13T06:58:45;1.00;;;0.77;;
51467;SDS011;37545;45.302;-122.946;2023-07-13T07:01:14;1.27;;;0.85;;
51467;SDS011;37545;45.302;-122.946;2023-07-13T07:03:42;1.55;;;0.80;;
51467;SDS011;37545;45.302;-122.946;2023-07-13T07:06:12;2.15;;;1.00;;
51467;SDS011;37545;45.302;-122.946;2023-07-13T07:11:12;1.80;;;0.88;;
51467;SDS011;37545;45.302;-122.946;2023-07-13T07:13:46;1.90;;;0.90;;
51467;SDS011;37545;45.302;-122.946;2023-07-13T07:16:15;1.30;;;0.75;;
51467;SDS011;37545;45.302;-122.946;2023-07-13T07:18:44;1.38;;;0.90;;
51467;SDS011;37545;45.302;-122.946;2023-07-13T07:21:13;3.47;;;1.10;;
51467;SDS011;37545;45.302;-122.946;2023-07-13T07:23:42;1.98;;;0.90;;
51467;SDS011;37545;45.302;-122.946;2023-07-13T07:26:11;1.08;;;0.68;;
51467;SDS011;37545;45.302;-122.946;2023-07-13T07:28:40;0.80;;;0.60;;
51467;SDS011;37545;45.302;-122.946;2023-07-13T07:31:10;1.85;;;0.80;;
51467;SDS011;37545;45.302;-122.946;2023-07-13T07:33:39;0.80;;;0.60;;
51467;SDS011;37545;45.302;-122.946;2023-07-13T07:36:07;0.95;;;0.80;;
51467;SDS011;37545;45.302;-122.946;2023-07-13T07:38:37;1.23;;;0.68;;
51467;SDS011;37545;45.302;-122.946;2023-07-13T07:41:05;0.98;;;0.60;;
51467;SDS011;37545;45.302;-122.946;2023-07-13T07:43:34;0.57;;;0.50;;
51467;SDS011;37545;45.302;-122.946;2023-07-13T07:46:03;0.95;;;0.70;;
51467;SDS011;37545;45.302;-122.946;2023-07-13T07:48:33;2.20;;;0.70;;
51467;SDS011;37545;45.302;-122.946;2023-07-13T07:51:02;1.52;;;0.63;;
51467;SDS011;37545;45.302;-122.946;2023-07-13T07:53:31;0.90;;;0.43;;
51467;SDS011;37545;45.302;-122.946;2023-07-13T07:55:59;0.85;;;0.70;;
51467;SDS011;37545;45.302;-122.946;2023-07-13T07:58:28;0.80;;;0.50;;
51467;SDS011;37545;45.302;-122.946;2023-07-13T08:01:01;0.93;;;0.50;;
51467;SDS011;37545;45.302;-122.946;2023-07-13T08:03:35;3.17;;;0.80;;
51467;SDS011;37545;45.302;-122.946;2023-07-13T08:06:03;1.20;;;0.70;;
51467;SDS011;37545;45.302;-122.946;2023-07-13T08:08:32;1.08;;;0.60;;
51467;SDS011;37545;45.302;-122.946;2023-07-13T08:11:02;2.22;;;0.80;;
51467;SDS011;37545;45.302;-122.946;2023-07-13T08:13:31;0.73;;;0.52;;
51467;SDS011;37545;45.302;-122.946;2023-07-13T08:16:00;0.98;;;0.70;;
51467;SDS011;37545;45.302;-122.946;2023-07-13T08:18:28;0.82;;;0.57;;
51467;SDS011;37545;45.302;-122.946;2023-07-13T08:20:59;1.08;;;0.70;;
51467;SDS011;37545;45.302;-122.946;2023-07-13T08:23:31;1.92;;;0.52;;
51467;SDS011;37545;45.302;-122.946;2023-07-13T08:25:59;1.25;;;0.60;;
51467;SDS011;37545;45.302;-122.946;2023-07-13T08:28:30;1.77;;;0.63;;
51467;SDS011;37545;45.302;-122.946;2023-07-13T08:31:00;0.80;;;0.40;;
51467;SDS011;37545;45.302;-122.946;2023-07-13T08:33:29;1.52;;;0.85;;
51467;SDS011;37545;45.302;-122.946;2023-07-13T08:36:00;0.73;;;0.57;;
51467;SDS011;37545;45.302;-122.946;2023-07-13T08:38:28;1.38;;;0.77;;
51467;SDS011;37545;45.302;-122.946;2023-07-13T08:40:57;1.25;;;0.70;;
51467;SDS011;37545;45.302;-122.946;2023-07-13T08:43:26;2.97;;;0.60;;
51467;SDS011;37545;45.302;-122.946;2023-07-13T08:45:59;1.33;;;0.60;;
51467;SDS011;37545;45.302;-122.946;2023-07-13T08:48:35;0.98;;;0.70;;
51467;SDS011;37545;45.302;-122.946;2023-07-13T08:51:12;1.80;;;0.77;;
51467;SDS011;37545;45.302;-122.946;2023-07-13T08:54:02;0.90;;;0.60;;
51467;SDS011;37545;45.302;-122.946;2023-07-13T08:56:38;3.42;;;0.90;;
51467;SDS011;37545;45.302;-122.946;2023-07-13T08:59:11;1.80;;;0.80;;
51467;SDS011;37545;45.302;-122.946;2023-07-13T09:04:37;0.63;;;0.57;;
51467;SDS011;37545;45.302;-122.946;2023-07-13T09:07:14;0.80;;;0.80;;
51467;SDS011;37545;45.302;-122.946;2023-07-13T09:09:59;0.85;;;0.70;;
51467;SDS011;37545;45.302;-122.946;2023-07-13T09:12:40;0.93;;;0.63;;
51467;SDS011;37545;45.302;-122.946;2023-07-13T09:15:23;1.38;;;0.80;;
51467;SDS011;37545;45.302;-122.946;2023-07-13T09:17:56;1.45;;;0.43;;
51467;SDS011;37545;45.302;-122.946;2023-07-13T09:20:31;0.63;;;0.43;;
51467;SDS011;37545;45.302;-122.946;2023-07-13T09:23:12;1.35;;;0.70;;
51467;SDS011;37545;45.302;-122.946;2023-07-13T09:25:43;0.80;;;0.40;;
51467;SDS011;37545;45.302;-122.946;2023-07-13T09:28:17;1.95;;;0.60;;
51467;SDS011;37545;45.302;-122.946;2023-07-13T09:30:50;0.90;;;0.60;;
51467;SDS011;37545;45.302;-122.946;2023-07-13T09:33:23;1.80;;;0.50;;
51467;SDS011;37545;45.302;-122.946;2023-07-13T09:35:55;0.93;;;0.60;;
51467;SDS011;37545;45.302;-122.946;2023-07-13T09:38:27;1.23;;;0.60;;
51467;SDS011;37545;45.302;-122.946;2023-07-13T09:40:59;0.95;;;0.70;;
51467;SDS011;37545;45.302;-122.946;2023-07-13T09:46:46;0.82;;;0.60;;
51467;SDS011;37545;45.302;-122.946;2023-07-13T09:49:22;1.10;;;0.63;;
51467;SDS011;37545;45.302;-122.946;2023-07-13T09:51:57;2.65;;;0.60;;
51467;SDS011;37545;45.302;-122.946;2023-07-13T09:54:29;1.48;;;0.73;;
51467;SDS011;37545;45.302;-122.946;2023-07-13T09:57:01;2.30;;;0.52;;
51467;SDS011;37545;45.302;-122.946;2023-07-13T09:59:32;1.45;;;0.77;;
51467;SDS011;37545;45.302;-122.946;2023-07-13T10:02:02;1.27;;;0.68;;
51467;SDS011;37545;45.302;-122.946;2023-07-13T10:04:55;1.27;;;0.52;;
51467;SDS011;37545;45.302;-122.946;2023-07-13T10:07:25;2.30;;;0.50;;
51467;SDS011;37545;45.302;-122.946;2023-07-13T10:09:56;1.23;;;0.80;;
51467;SDS011;37545;45.302;-122.946;2023-07-13T10:12:27;1.35;;;0.80;;
51467;SDS011;37545;45.302;-122.946;2023-07-13T10:14:57;0.70;;;0.43;;
51467;SDS011;37545;45.302;-122.946;2023-07-13T10:17:30;1.17;;;0.85;;
51467;SDS011;37545;45.302;-122.946;2023-07-13T10:19:59;0.93;;;0.73;;
51467;SDS011;37545;45.302;-122.946;2023-07-13T10:22:35;1.35;;;0.77;;
51467;SDS011;37545;45.302;-122.946;2023-07-13T10:25:18;0.75;;;0.60;;
51467;SDS011;37545;45.302;-122.946;2023-07-13T10:27:51;1.85;;;0.60;;
51467;SDS011;37545;45.302;-122.946;2023-07-13T10:30:23;1.42;;;0.80;;
51467;SDS011;37545;45.302;-122.946;2023-07-13T10:32:57;0.95;;;0.47;;
51467;SDS011;37545;45.302;-122.946;2023-07-13T10:35:27;0.80;;;0.47;;
51467;SDS011;37545;45.302;-122.946;2023-07-13T10:37:58;4.78;;;0.80;;
51467;SDS011;37545;45.302;-122.946;2023-07-13T10:40:34;1.17;;;0.60;;
51467;SDS011;37545;45.302;-122.946;2023-07-13T10:43:09;0.80;;;0.60;;
51467;SDS011;37545;45.302;-122.946;2023-07-13T10:45:45;1.52;;;0.50;;
51467;SDS011;37545;45.302;-122.946;2023-07-13T10:48:15;0.85;;;0.60;;
51467;SDS011;37545;45.302;-122.946;2023-07-13T10:50:45;1.23;;;0.65;;
51467;SDS011;37545;45.302;-122.946;2023-07-13T10:53:20;0.73;;;0.50;;
51467;SDS011;37545;45.302;-122.946;2023-07-13T10:55:57;0.68;;;0.65;;
51467;SDS011;37545;45.302;-122.946;2023-07-13T10:58:34;1.45;;;0.68;;
51467;SDS011;37545;45.302;-122.946;2023-07-13T11:01:07;1.05;;;0.90;;
51467;SDS011;37545;45.302;-122.946;2023-07-13T11:03:38;1.48;;;0.77;;
51467;SDS011;37545;45.302;-122.946;2023-07-13T11:06:17;1.17;;;0.77;;
51467;SDS011;37545;45.302;-122.946;2023-07-13T11:09:07;2.00;;;0.70;;
51467;SDS011;37545;45.302;-122.946;2023-07-13T11:11:48;1.00;;;0.60;;
51467;SDS011;37545;45.302;-122.946;2023-07-13T11:14:26;1.05;;;0.80;;
51467;SDS011;37545;45.302;-122.946;2023-07-13T11:16:56;0.85;;;0.65;;
51467;SDS011;37545;45.302;-122.946;2023-07-13T11:19:38;2.15;;;0.60;;
51467;SDS011;37545;45.302;-122.946;2023-07-13T11:22:13;0.88;;;0.60;;
51467;SDS011;37545;45.302;-122.946;2023-07-13T11:24:49;2.22;;;0.70;;
51467;SDS011;37545;45.302;-122.946;2023-07-13T11:27:34;2.35;;;1.23;;
51467;SDS011;37545;45.302;-122.946;2023-07-13T11:30:20;2.13;;;0.60;;
51467;SDS011;37545;45.302;-122.946;2023-07-13T11:33:04;0.60;;;0.60;;
51467;SDS011;37545;45.302;-122.946;2023-07-13T11:35:41;1.00;;;0.50;;
51467;SDS011;37545;45.302;-122.946;2023-07-13T11:38:28;1.48;;;0.90;;
51467;SDS011;37545;45.302;-122.946;2023-07-13T11:41:03;0.60;;;0.60;;
51467;SDS011;37545;45.302;-122.946;2023-07-13T11:43:35;1.58;;;0.82;;
51467;SDS011;37545;45.302;-122.946;2023-07-13T11:46:16;1.60;;;0.70;;
51467;SDS011;37545;45.302;-122.946;2023-07-13T11:48:48;1.20;;;0.70;;
51467;SDS011;37545;45.302;-122.946;2023-07-13T11:51:20;2.15;;;0.80;;
51467;SDS011;37545;45.302;-122.946;2023-07-13T11:53:53;1.15;;;0.75;;
51467;SDS011;37545;45.302;-122.946;2023-07-13T11:56:23;1.70;;;0.80;;
51467;SDS011;37545;45.302;-122.946;2023-07-13T11:58:54;1.17;;;0.70;;
51467;SDS011;37545;45.302;-122.946;2023-07-13T12:01:25;2.53;;;0.70;;
51467;SDS011;37545;45.302;-122.946;2023-07-13T12:03:58;1.08;;;0.63;;
51467;SDS011;37545;45.302;-122.946;2023-07-13T12:06:29;3.80;;;1.13;;
51467;SDS011;37545;45.302;-122.946;2023-07-13T12:09:02;1.02;;;0.70;;
51467;SDS011;37545;45.302;-122.946;2023-07-13T12:11:46;2.60;;;0.93;;
51467;SDS011;37545;45.302;-122.946;2023-07-13T12:14:24;0.98;;;0.80;;
51467;SDS011;37545;45.302;-122.946;2023-07-13T12:16:53;0.90;;;0.70;;
51467;SDS011;37545;45.302;-122.946;2023-07-13T12:19:23;1.27;;;0.73;;
51467;SDS011;37545;45.302;-122.946;2023-07-13T12:21:55;1.73;;;0.88;;
51467;SDS011;37545;45.302;-122.946;2023-07-13T12:24:25;1.52;;;0.80;;
51467;SDS011;37545;45.302;-122.946;2023-07-13T12:26:58;0.57;;;0.40;;
51467;SDS011;37545;45.302;-122.946;2023-07-13T12:29:29;0.77;;;0.70;;
51467;SDS011;37545;45.302;-122.946;2023-07-13T12:31:59;1.40;;;0.73;;
51467;SDS011;37545;45.302;-122.946;2023-07-13T12:34:28;1.75;;;0.73;;
51467;SDS011;37545;45.302;-122.946;2023-07-13T12:36:58;2.30;;;1.02;;
51467;SDS011;37545;45.302;-122.946;2023-07-13T12:39:30;1.75;;;0.80;;
51467;SDS011;37545;45.302;-122.946;2023-07-13T12:42:17;1.45;;;0.80;;
51467;SDS011;37545;45.302;-122.946;2023-07-13T12:44:51;1.80;;;0.60;;
51467;SDS011;37545;45.302;-122.946;2023-07-13T12:47:21;1.48;;;0.70;;
51467;SDS011;37545;45.302;-122.946;2023-07-13T12:49:50;1.02;;;0.85;;
51467;SDS011;37545;45.302;-122.946;2023-07-13T12:52:24;1.95;;;0.68;;
51467;SDS011;37545;45.302;-122.946;2023-07-13T12:54:58;1.98;;;0.88;;
51467;SDS011;37545;45.302;-122.946;2023-07-13T12:57:38;1.38;;;0.90;;
51467;SDS011;37545;45.302;-122.946;2023-07-13T13:00:21;1.83;;;0.88;;
51467;SDS011;37545;45.302;-122.946;2023-07-13T13:02:52;3.78;;;0.93;;
51467;SDS011;37545;45.302;-122.946;2023-07-13T13:05:22;1.67;;;0.80;;
51467;SDS011;37545;45.302;-122.946;2023-07-13T13:07:53;3.17;;;0.82;;
51467;SDS011;37545;45.302;-122.946;2023-07-13T13:10:22;3.58;;;0.80;;
51467;SDS011;37545;45.302;-122.946;2023-07-13T13:12:51;2.08;;;0.82;;
51467;SDS011;37545;45.302;-122.946;2023-07-13T13:15:22;1.85;;;0.80;;
51467;SDS011;37545;45.302;-122.946;2023-07-13T13:17:50;0.98;;;0.75;;
51467;SDS011;37545;45.302;-122.946;2023-07-13T13:20:19;2.47;;;1.33;;
51467;SDS011;37545;45.302;-122.946;2023-07-13T13:22:51;1.00;;;0.90;;
51467;SDS011;37545;45.302;-122.946;2023-07-13T13:25:20;1.48;;;0.90;;
51467;SDS011;37545;45.302;-122.946;2023-07-13T13:27:49;1.77;;;1.02;;
51467;SDS011;37545;45.302;-122.946;2023-07-13T13:30:19;1.42;;;0.80;;
51467;SDS011;37545;45.302;-122.946;2023-07-13T13:32:49;3.45;;;0.82;;
51467;SDS011;37545;45.302;-122.946;2023-07-13T13:35:19;1.58;;;1.00;;
51467;SDS011;37545;45.302;-122.946;2023-07-13T13:37:48;1.90;;;0.70;;
51467;SDS011;37545;45.302;-122.946;2023-07-13T13:40:18;4.25;;;0.98;;
51467;SDS011;37545;45.302;-122.946;2023-07-13T13:42:51;2.15;;;0.98;;
51467;SDS011;37545;45.302;-122.946;2023-07-13T13:45:23;3.35;;;0.98;;
51467;SDS011;37545;45.302;-122.946;2023-07-13T13:47:53;1.77;;;0.77;;
51467;SDS011;37545;45.302;-122.946;2023-07-13T13:50:22;3.40;;;1.27;;
51467;SDS011;37545;45.302;-122.946;2023-07-13T13:52:51;1.38;;;0.90;;
51467;SDS011;37545;45.302;-122.946;2023-07-13T13:55:20;1.88;;;1.17;;
51467;SDS011;37545;45.302;-122.946;2023-07-13T13:57:49;2.50;;;0.95;;
51467;SDS011;37545;45.302;-122.946;2023-07-13T14:00:20;1.20;;;1.00;;
51467;SDS011;37545;45.302;-122.946;2023-07-13T14:02:50;2.08;;;1.40;;
51467;SDS011;37545;45.302;-122.946;2023-07-13T14:05:24;1.20;;;0.90;;
51467;SDS011;37545;45.302;-122.946;2023-07-13T14:07:53;1.55;;;0.95;;
51467;SDS011;37545;45.302;-122.946;2023-07-13T14:10:22;1.85;;;1.02;;
51467;SDS011;37545;45.302;-122.946;2023-07-13T14:12:51;2.30;;;1.00;;
51467;SDS011;37545;45.302;-122.946;2023-07-13T14:15:22;2.30;;;1.13;;
51467;SDS011;37545;45.302;-122.946;2023-07-13T14:17:52;2.95;;;0.85;;
51467;SDS011;37545;45.302;-122.946;2023-07-13T14:20:21;2.85;;;1.63;;
51467;SDS011;37545;45.302;-122.946;2023-07-13T14:22:55;3.22;;;1.23;;
51467;SDS011;37545;45.302;-122.946;2023-07-13T14:25:24;1.40;;;0.90;;
51467;SDS011;37545;45.302;-122.946;2023-07-13T14:27:53;3.17;;;1.20;;
51467;SDS011;37545;45.302;-122.946;2023-07-13T14:30:29;6.20;;;1.58;;
51467;SDS011;37545;45.302;-122.946;2023-07-13T14:32:58;5.40;;;1.35;;
51467;SDS011;37545;45.302;-122.946;2023-07-13T14:35:28;2.30;;;0.98;;
51467;SDS011;37545;45.302;-122.946;2023-07-13T14:37:57;2.83;;;1.27;;
51467;SDS011;37545;45.302;-122.946;2023-07-13T14:40:28;1.55;;;1.15;;